createdAt,value
2018-08-20T00:01:28.979Z,66.03
2018-08-20T00:04:00.328Z,66.45
2018-08-20T00:06:34.235Z,66.35
2018-08-20T00:09:03.351Z,66.27
2018-08-20T00:11:32.013Z,66.12
2018-08-20T00:14:00.704Z,67.10
2018-08-20T00:16:29.491Z,66.49
2018-08-20T00:18:58.199Z,66.49
2018-08-20T00:21:27.312Z,66.92
2018-08-20T00:23:56.179Z,66.95
2018-08-20T00:26:26.039Z,66.65
2018-08-20T00:28:55.126Z,66.25
2018-08-20T00:31:24.618Z,66.56
2018-08-20T00:33:53.860Z,67.03
2018-08-20T00:36:22.928Z,67.98
2018-08-20T00:38:51.667Z,67.31
2018-08-20T00:41:20.410Z,67.42
2018-08-20T00:43:49.222Z,67.77
2018-08-20T00:46:17.879Z,68.59
2018-08-20T00:48:47.043Z,68.15
2018-08-20T00:51:15.793Z,68.27
2018-08-20T00:53:44.708Z,68.12
2018-08-20T00:56:13.550Z,67.73
2018-08-20T00:58:42.502Z,67.77
2018-08-20T01:01:11.467Z,67.69
2018-08-20T01:03:40.461Z,67.66
2018-08-20T01:06:09.382Z,66.71
2018-08-20T01:08:38.114Z,66.05
2018-08-20T01:11:07.582Z,65.67
2018-08-20T01:13:36.363Z,65.76
2018-08-20T01:16:05.021Z,66.71
2018-08-20T01:18:33.824Z,66.64
2018-08-20T01:21:03.042Z,65.79
2018-08-20T01:23:31.928Z,65.76
2018-08-20T01:26:00.847Z,65.53
2018-08-20T01:28:29.604Z,65.87
2018-08-20T01:30:58.376Z,65.01
2018-08-20T01:33:27.295Z,65.04
2018-08-20T01:35:56.222Z,66.03
2018-08-20T01:38:25.210Z,65.55
2018-08-20T01:40:53.802Z,65.26
2018-08-20T01:43:22.652Z,65.35
2018-08-20T01:45:51.367Z,66.04
2018-08-20T01:48:20.249Z,66.06
2018-08-20T01:50:49.005Z,66.24
2018-08-20T01:53:17.875Z,65.92
2018-08-20T01:55:46.693Z,66.97
2018-08-20T01:58:15.345Z,67.71
2018-08-20T02:00:44.250Z,68.02
2018-08-20T02:03:13.039Z,68.11
2018-08-20T02:05:42.095Z,68.24
2018-08-20T02:08:11.035Z,68.98
2018-08-20T02:10:39.854Z,69.40
2018-08-20T02:13:08.564Z,69.88
2018-08-20T02:15:38.110Z,69.24
2018-08-20T02:18:08.288Z,69.15
2018-08-20T02:20:37.304Z,69.79
2018-08-20T02:23:06.354Z,70.16
2018-08-20T02:25:35.074Z,69.43
2018-08-20T02:28:04.131Z,69.48
2018-08-20T02:30:33.303Z,69.84
2018-08-20T02:33:02.546Z,70.14
2018-08-20T02:35:31.277Z,70.42
2018-08-20T02:38:00.142Z,71.91
2018-08-20T02:40:29.146Z,71.55
2018-08-20T02:42:57.966Z,71.13
2018-08-20T02:45:26.726Z,71.53
2018-08-20T02:47:55.374Z,70.29
2018-08-20T02:50:24.290Z,69.26
2018-08-20T02:52:53.356Z,68.68
2018-08-20T02:55:22.070Z,68.46
2018-08-20T02:57:50.750Z,68.74
2018-08-20T03:00:19.581Z,68.58
2018-08-20T03:02:48.472Z,68.41
2018-08-20T03:05:17.178Z,68.59
2018-08-20T03:07:46.070Z,68.48
2018-08-20T03:10:14.836Z,69.00
2018-08-20T03:12:43.530Z,68.55
2018-08-20T03:15:12.421Z,69.10
2018-08-20T03:17:41.255Z,69.02
2018-08-20T03:20:10.051Z,70.36
2018-08-20T03:22:38.975Z,71.38
2018-08-20T03:25:08.375Z,71.44
2018-08-20T03:27:37.426Z,71.70
2018-08-20T03:30:07.276Z,71.70
2018-08-20T03:32:36.251Z,72.66
2018-08-20T03:35:06.969Z,72.51
2018-08-20T03:37:35.863Z,72.30
2018-08-20T03:40:05.411Z,72.97
2018-08-20T03:42:34.144Z,72.54
2018-08-20T03:45:02.921Z,72.57
2018-08-20T03:47:32.027Z,72.84
2018-08-20T03:50:01.245Z,72.20
2018-08-20T03:52:30.402Z,72.29
2018-08-20T03:54:59.388Z,72.53
2018-08-20T03:57:28.120Z,72.88
2018-08-20T03:59:57.030Z,72.18
2018-08-20T04:02:26.145Z,70.90
2018-08-20T04:04:55.121Z,71.29
2018-08-20T04:07:23.985Z,71.39
2018-08-20T04:09:52.706Z,71.84
2018-08-20T04:12:21.338Z,71.29
2018-08-20T04:14:50.118Z,70.90
2018-08-20T04:17:19.170Z,70.44
2018-08-20T04:19:48.275Z,70.00
2018-08-20T04:22:17.359Z,69.34
2018-08-20T04:24:46.111Z,68.94
2018-08-20T04:27:14.946Z,68.46
2018-08-20T04:29:43.691Z,68.31
2018-08-20T04:32:12.505Z,68.13
2018-08-20T04:34:41.494Z,67.88
2018-08-20T04:37:10.703Z,67.65
2018-08-20T04:39:39.696Z,67.19
2018-08-20T04:42:08.448Z,67.04
2018-08-20T04:44:37.298Z,66.56
2018-08-20T04:47:06.302Z,66.92
2018-08-20T04:49:35.221Z,66.30
2018-08-20T04:52:04.122Z,65.82
2018-08-20T04:54:32.855Z,65.07
2018-08-20T04:57:01.939Z,64.78
2018-08-20T04:59:31.138Z,64.68
2018-08-20T05:02:00.411Z,64.33
2018-08-20T05:04:29.065Z,64.46
2018-08-20T05:06:57.803Z,62.31
2018-08-20T05:09:26.920Z,62.93
2018-08-20T05:11:55.710Z,62.54
2018-08-20T05:14:24.486Z,62.16
2018-08-20T05:16:53.679Z,61.97
2018-08-20T05:19:22.958Z,61.91
2018-08-20T05:21:51.986Z,61.62
2018-08-20T05:24:20.740Z,61.95
2018-08-20T05:26:49.513Z,61.67
2018-08-20T05:29:18.314Z,61.01
2018-08-20T05:31:47.370Z,60.22
2018-08-20T05:34:16.538Z,59.35
2018-08-20T05:36:45.487Z,59.45
2018-08-20T05:39:14.580Z,59.69
2018-08-20T05:41:43.265Z,58.84
2018-08-20T05:44:11.958Z,58.28
2018-08-20T05:46:40.861Z,58.52
2018-08-20T05:49:11.741Z,58.21
2018-08-20T05:51:40.876Z,57.26
2018-08-20T05:54:09.931Z,57.44
2018-08-20T05:56:38.966Z,57.34
2018-08-20T05:59:08.001Z,55.84
2018-08-20T06:01:36.895Z,55.18
2018-08-20T06:04:06.099Z,55.19
2018-08-20T06:06:34.923Z,53.96
2018-08-20T06:09:04.827Z,53.79
2018-08-20T06:11:33.508Z,52.94
2018-08-20T06:14:02.613Z,53.55
2018-08-20T06:16:31.584Z,54.36
2018-08-20T06:19:00.399Z,52.80
2018-08-20T06:21:29.384Z,52.35
2018-08-20T06:23:58.224Z,52.21
2018-08-20T06:26:27.182Z,52.97
2018-08-20T06:28:56.288Z,53.25
2018-08-20T06:31:25.446Z,53.93
2018-08-20T06:33:54.752Z,53.85
2018-08-20T06:36:23.799Z,52.53
2018-08-20T06:38:52.415Z,53.83
2018-08-20T06:41:21.116Z,51.78
2018-08-20T06:43:50.189Z,52.27
2018-08-20T06:46:19.053Z,52.43
2018-08-20T06:48:48.171Z,51.24
2018-08-20T06:51:17.269Z,50.60
2018-08-20T06:53:46.103Z,50.53
2018-08-20T06:56:14.785Z,49.89
2018-08-20T06:58:43.698Z,50.29
2018-08-20T07:01:12.869Z,49.50
2018-08-20T07:03:42.122Z,47.39
2018-08-20T07:06:10.891Z,47.21
2018-08-20T07:08:39.986Z,45.83
2018-08-20T07:11:08.769Z,45.44
2018-08-20T07:13:38.007Z,45.60
2018-08-20T07:16:08.224Z,45.64
2018-08-20T07:21:33.486Z,44.82
2018-08-20T07:24:02.352Z,44.60
2018-08-20T07:26:31.178Z,43.98
2018-08-20T07:29:00.328Z,44.23
2018-08-20T07:31:29.482Z,44.04
2018-08-20T07:33:58.330Z,43.27
2018-08-20T07:36:27.150Z,42.40
2018-08-20T07:38:56.068Z,43.53
2018-08-20T07:41:25.244Z,43.32
2018-08-20T07:43:54.091Z,42.69
2018-08-20T07:46:23.122Z,41.87
2018-08-20T07:48:52.107Z,42.48
2018-08-20T07:51:21.182Z,42.04
2018-08-20T07:53:50.214Z,41.19
2018-08-20T07:56:19.202Z,40.87
2018-08-20T07:58:48.296Z,39.94
2018-08-20T08:01:17.460Z,39.45
2018-08-20T08:03:46.254Z,39.32
2018-08-20T08:06:15.294Z,40.21
2018-08-20T08:08:43.986Z,40.23
2018-08-20T08:11:12.700Z,39.21
2018-08-20T08:13:41.446Z,38.58
2018-08-20T08:16:10.435Z,38.69
2018-08-20T08:18:39.390Z,37.59
2018-08-20T08:21:08.338Z,37.69
2018-08-20T08:23:37.392Z,36.77
2018-08-20T08:26:06.807Z,36.50
2018-08-20T08:28:35.739Z,36.19
2018-08-20T08:31:04.760Z,36.17
2018-08-20T08:33:33.593Z,36.73
2018-08-20T08:36:02.466Z,36.25
2018-08-20T08:38:31.339Z,36.73
2018-08-20T08:41:01.014Z,35.96
2018-08-20T08:43:29.839Z,35.99
2018-08-20T08:45:59.085Z,36.17
2018-08-20T08:48:28.030Z,35.23
2018-08-20T08:50:56.932Z,34.38
2018-08-20T08:53:25.945Z,33.64
2018-08-20T08:55:54.908Z,33.35
2018-08-20T08:58:23.814Z,34.06
2018-08-20T09:00:52.693Z,34.85
2018-08-20T09:03:21.723Z,34.13
2018-08-20T09:05:50.527Z,33.48
2018-08-20T09:08:19.456Z,32.89
2018-08-20T09:10:48.255Z,33.38
2018-08-20T09:13:17.037Z,32.75
2018-08-20T09:15:46.180Z,32.43
2018-08-20T09:18:15.010Z,31.32
2018-08-20T09:20:43.900Z,31.04
2018-08-20T09:23:12.604Z,30.99
2018-08-20T09:25:41.543Z,31.36
2018-08-20T09:28:10.475Z,30.43
2018-08-20T09:30:39.515Z,30.60
2018-08-20T09:33:09.348Z,30.58
2018-08-20T09:35:38.358Z,30.05
2018-08-20T09:38:07.339Z,30.71
2018-08-20T09:40:36.374Z,30.40
2018-08-20T09:43:05.546Z,29.57
2018-08-20T09:45:34.231Z,28.78
2018-08-20T09:48:03.036Z,29.03
2018-08-20T09:50:31.705Z,28.46
2018-08-20T09:53:00.475Z,28.09
2018-08-20T09:55:29.257Z,28.51
2018-08-20T09:57:58.250Z,28.66
2018-08-20T10:00:32.187Z,28.09
2018-08-20T10:03:01.142Z,27.52
2018-08-20T10:05:30.056Z,28.40
2018-08-20T10:07:58.918Z,28.28
2018-08-20T10:10:27.901Z,28.72
2018-08-20T10:12:57.051Z,28.42
2018-08-20T10:15:26.127Z,29.05
2018-08-20T10:17:55.267Z,28.39
2018-08-20T10:20:24.059Z,28.67
2018-08-20T10:22:52.976Z,28.09
2018-08-20T10:25:21.722Z,28.05
2018-08-20T10:27:50.346Z,28.88
2018-08-20T10:30:19.213Z,29.09
2018-08-20T10:32:48.090Z,30.04
2018-08-20T10:35:17.212Z,29.04
2018-08-20T10:37:46.375Z,29.20
2018-08-20T10:40:14.919Z,29.60
2018-08-20T10:42:43.907Z,29.62
2018-08-20T10:45:18.473Z,28.62
2018-08-20T10:47:48.657Z,29.98
2018-08-20T10:50:19.442Z,29.63
2018-08-20T10:52:49.691Z,30.64
2018-08-20T10:55:18.403Z,31.91
2018-08-20T10:57:47.338Z,30.88
2018-08-20T11:00:16.833Z,32.20
2018-08-20T11:02:45.830Z,31.65
2018-08-20T11:05:17.348Z,32.19
2018-08-20T11:07:46.418Z,32.31
2018-08-20T11:10:15.235Z,32.22
2018-08-20T11:12:44.389Z,33.21
2018-08-20T11:15:13.463Z,33.00
2018-08-20T11:17:42.538Z,32.44
2018-08-20T11:20:14.082Z,32.25
2018-08-20T11:22:43.108Z,32.36
2018-08-20T11:25:12.592Z,31.51
2018-08-20T11:27:41.611Z,31.21
2018-08-20T11:30:12.693Z,31.09
2018-08-20T11:32:41.732Z,29.96
2018-08-20T11:35:11.322Z,30.31
2018-08-20T11:37:40.558Z,30.05
2018-08-20T11:40:10.055Z,31.04
2018-08-20T11:42:39.893Z,30.56
2018-08-20T11:45:11.369Z,31.20
2018-08-20T11:47:40.333Z,34.21
2018-08-20T11:50:09.398Z,36.66
2018-08-20T11:52:39.219Z,39.57
2018-08-20T11:55:08.582Z,41.84
2018-08-20T11:57:37.558Z,46.64
2018-08-20T12:00:08.544Z,47.46
2018-08-20T12:02:37.319Z,55.75
2018-08-20T12:05:06.851Z,56.29
2018-08-20T12:07:36.178Z,59.26
2018-08-20T12:10:05.892Z,58.34
2018-08-20T12:12:34.713Z,60.43
2018-08-20T12:15:03.590Z,62.45
2018-08-20T12:17:32.447Z,62.00
2018-08-20T12:20:01.335Z,63.60
2018-08-20T12:22:30.275Z,62.50
2018-08-20T12:24:59.162Z,61.71
2018-08-20T12:27:28.015Z,61.82
2018-08-20T12:29:57.061Z,60.78
2018-08-20T12:32:25.928Z,59.81
2018-08-20T12:34:54.748Z,59.21
2018-08-20T12:37:23.562Z,59.50
2018-08-20T12:39:52.589Z,59.71
2018-08-20T12:42:21.439Z,58.48
2018-08-20T12:44:50.151Z,57.62
2018-08-20T12:47:19.191Z,56.94
2018-08-20T12:49:48.344Z,57.35
2018-08-20T12:52:17.404Z,57.43
2018-08-20T12:54:46.270Z,57.13
2018-08-20T12:57:15.174Z,55.76
2018-08-20T12:59:44.223Z,54.96
2018-08-20T13:02:13.027Z,54.78
2018-08-20T13:04:41.715Z,54.11
2018-08-20T13:07:10.519Z,53.40
2018-08-20T13:09:39.325Z,54.09
2018-08-20T13:12:08.392Z,51.97
2018-08-20T13:14:37.468Z,52.29
2018-08-20T13:17:06.564Z,50.54
2018-08-20T13:19:36.148Z,50.40
2018-08-20T13:22:05.628Z,48.10
2018-08-20T13:24:34.791Z,47.85
2018-08-20T13:27:03.719Z,47.32
2018-08-20T13:29:32.847Z,48.21
2018-08-20T13:32:01.659Z,47.86
2018-08-20T13:34:30.679Z,47.34
2018-08-20T13:37:00.086Z,46.78
2018-08-20T13:39:28.959Z,46.21
2018-08-20T13:41:57.740Z,46.20
2018-08-20T13:44:26.896Z,45.22
2018-08-20T13:46:55.709Z,44.24
2018-08-20T13:49:25.015Z,44.11
2018-08-20T13:51:54.255Z,44.04
2018-08-20T13:54:23.432Z,43.70
2018-08-20T13:56:52.470Z,43.28
2018-08-20T13:59:23.129Z,43.21
2018-08-20T14:01:53.833Z,42.76
2018-08-20T14:04:27.949Z,43.17
2018-08-20T14:06:59.852Z,42.49
2018-08-20T14:09:28.696Z,42.81
2018-08-20T14:11:57.674Z,41.36
2018-08-20T14:14:26.498Z,41.77
2018-08-20T14:16:55.236Z,42.00
2018-08-20T14:19:24.151Z,41.62
2018-08-20T14:21:53.414Z,41.35
2018-08-20T14:24:22.468Z,41.32
2018-08-20T14:26:51.323Z,40.61
2018-08-20T14:29:20.393Z,39.91
2018-08-20T14:31:49.662Z,40.38
2018-08-20T14:34:18.410Z,40.74
2018-08-20T14:36:47.519Z,40.09
2018-08-20T14:39:16.395Z,40.20
2018-08-20T14:41:45.246Z,39.52
2018-08-20T14:44:13.997Z,39.54
2018-08-20T14:46:42.782Z,39.41
2018-08-20T14:49:11.742Z,39.44
2018-08-20T14:51:40.427Z,40.12
2018-08-20T14:54:09.339Z,39.81
2018-08-20T14:56:38.055Z,39.97
2018-08-20T14:59:07.010Z,41.41
2018-08-20T15:01:36.054Z,40.32
2018-08-20T15:04:05.189Z,40.85
2018-08-20T15:06:34.824Z,40.38
2018-08-20T15:09:03.784Z,39.85
2018-08-20T15:11:32.358Z,40.40
2018-08-20T15:14:01.154Z,39.89
2018-08-20T15:16:30.274Z,40.39
2018-08-20T15:18:59.205Z,39.80
2018-08-20T15:21:28.007Z,40.28
2018-08-20T15:23:56.797Z,40.02
2018-08-20T15:26:25.746Z,39.44
2018-08-20T15:28:54.890Z,39.07
2018-08-20T15:31:23.799Z,38.42
2018-08-20T15:33:52.744Z,37.99
2018-08-20T15:36:21.638Z,37.18
2018-08-20T15:38:50.797Z,37.38
2018-08-20T15:41:19.540Z,37.08
2018-08-20T15:43:48.287Z,35.90
2018-08-20T15:46:17.314Z,36.25
2018-08-20T15:48:46.371Z,35.69
2018-08-20T15:51:15.113Z,35.55
2018-08-20T15:53:44.301Z,35.97
2018-08-20T15:56:13.175Z,36.25
2018-08-20T15:58:42.297Z,35.36
2018-08-20T16:01:11.024Z,35.63
2018-08-20T16:03:39.961Z,35.92
2018-08-20T16:06:09.133Z,36.05
2018-08-20T16:08:38.538Z,37.33
2018-08-20T16:11:07.444Z,37.05
2018-08-20T16:13:36.242Z,37.73
2018-08-20T16:16:04.933Z,36.88
2018-08-20T16:18:33.815Z,36.10
2018-08-20T16:21:02.995Z,35.69
2018-08-20T16:23:31.873Z,34.58
2018-08-20T16:26:00.752Z,33.50
2018-08-20T16:28:29.817Z,33.62
2018-08-20T16:30:58.659Z,32.34
2018-08-20T16:33:27.580Z,32.43
2018-08-20T16:35:56.723Z,32.66
2018-08-20T16:38:25.666Z,32.85
2018-08-20T16:40:54.826Z,33.30
2018-08-20T16:43:23.584Z,33.06
2018-08-20T16:45:52.437Z,34.17
2018-08-20T16:48:21.208Z,35.11
2018-08-20T16:50:50.213Z,35.06
2018-08-20T16:53:19.251Z,35.46
2018-08-20T16:55:48.556Z,36.59
2018-08-20T16:58:17.434Z,36.59
2018-08-20T17:00:46.644Z,36.60
2018-08-20T17:03:15.531Z,36.51
2018-08-20T17:05:46.829Z,36.71
2018-08-20T17:08:23.571Z,38.07
2018-08-20T17:10:53.229Z,44.37
2018-08-20T17:13:22.020Z,44.67
2018-08-20T17:15:50.689Z,46.38
2018-08-20T17:18:19.426Z,48.52
2018-08-20T17:20:48.430Z,46.97
2018-08-20T17:23:21.856Z,49.08
2018-08-20T17:25:51.615Z,49.33
2018-08-20T17:28:22.061Z,49.32
2018-08-20T17:30:55.756Z,50.79
2018-08-20T17:33:25.067Z,54.90
2018-08-20T17:35:53.807Z,57.75
2018-08-20T17:38:22.815Z,58.33
2018-08-20T17:40:51.602Z,59.70
2018-08-20T17:43:20.562Z,59.69
2018-08-20T17:45:49.339Z,61.48
2018-08-20T17:48:25.175Z,62.81
2018-08-20T17:50:53.939Z,62.90
2018-08-20T17:53:23.086Z,65.07
2018-08-20T17:55:52.076Z,66.26
2018-08-20T17:58:21.178Z,65.16
2018-08-20T18:00:53.175Z,64.37
2018-08-20T18:03:27.308Z,66.56
2018-08-20T18:05:58.635Z,68.12
2018-08-20T18:08:28.786Z,69.24
2018-08-20T18:10:57.951Z,70.37
2018-08-20T18:13:40.534Z,70.79
2018-08-20T18:16:10.973Z,71.02
2018-08-20T18:18:40.739Z,70.73
2018-08-20T18:21:09.500Z,70.39
2018-08-20T18:23:38.611Z,70.81
2018-08-20T18:26:07.533Z,70.02
2018-08-20T18:28:42.356Z,69.93
2018-08-20T18:31:17.123Z,70.44
2018-08-20T18:33:46.400Z,69.60
2018-08-20T18:36:17.542Z,69.81
2018-08-20T18:39:05.910Z,69.54
2018-08-20T18:42:16.807Z,70.43
2018-08-20T18:44:47.194Z,71.32
2018-08-20T18:47:17.783Z,71.17
2018-08-20T18:49:52.591Z,71.36
2018-08-20T18:52:22.346Z,71.01
2018-08-20T18:54:52.497Z,71.62
2018-08-20T18:57:23.979Z,72.26
2018-08-20T18:59:53.437Z,72.30
2018-08-20T19:02:57.557Z,71.91
2018-08-20T19:05:26.814Z,72.35
2018-08-20T19:07:55.750Z,72.83
2018-08-20T19:10:28.795Z,72.79
2018-08-20T19:12:58.052Z,72.68
2018-08-20T19:15:38.151Z,72.54
2018-08-20T19:18:08.507Z,72.63
2018-08-20T19:20:37.529Z,73.12
2018-08-20T19:23:06.663Z,72.53
2018-08-20T19:25:35.405Z,72.71
2018-08-20T19:28:13.776Z,73.56
2018-08-20T19:30:42.747Z,73.60
2018-08-20T19:33:16.579Z,74.26
2018-08-20T19:35:45.856Z,73.75
2018-08-20T19:38:14.517Z,73.72
2018-08-20T19:40:43.605Z,73.26
2018-08-20T19:43:12.438Z,72.89
2018-08-20T19:45:43.364Z,73.21
2018-08-20T19:48:13.178Z,73.80
2018-08-20T19:50:42.130Z,73.89
2018-08-20T19:53:16.267Z,74.37
2018-08-20T19:55:45.595Z,74.09
2018-08-20T19:58:20.579Z,74.45
2018-08-20T20:01:01.536Z,75.06
2018-08-20T20:03:32.057Z,74.98
2018-08-20T20:06:01.540Z,75.74
2018-08-20T20:08:30.574Z,75.48
2018-08-20T20:10:59.499Z,75.50
2018-08-20T20:13:28.688Z,75.42
2018-08-20T20:15:57.913Z,75.68
2018-08-20T20:18:27.060Z,75.78
2018-08-20T20:20:56.110Z,75.68
2018-08-20T20:23:25.016Z,75.61
2018-08-20T20:25:54.034Z,75.40
2018-08-20T20:28:22.808Z,75.60
2018-08-20T20:30:51.770Z,76.37
2018-08-20T20:33:20.583Z,75.88
2018-08-20T20:35:49.454Z,76.03
2018-08-20T20:38:18.533Z,76.22
2018-08-20T20:40:47.559Z,75.55
2018-08-20T20:43:21.043Z,75.59
2018-08-20T20:45:50.228Z,76.15
2018-08-20T20:48:19.318Z,76.28
2018-08-20T20:50:48.311Z,76.11
2018-08-20T20:53:17.242Z,75.95
2018-08-20T20:55:46.325Z,76.06
2018-08-20T20:58:20.235Z,76.61
2018-08-20T21:00:49.606Z,76.59
2018-08-20T21:03:18.883Z,77.04
2018-08-20T21:05:47.917Z,76.92
2018-08-20T21:08:16.947Z,76.62
2018-08-20T21:10:50.305Z,75.99
2018-08-20T21:13:20.623Z,75.96
2018-08-20T21:15:58.319Z,76.13
2018-08-20T21:18:27.531Z,75.50
2018-08-20T21:20:56.195Z,75.10
2018-08-20T21:23:25.242Z,75.15
2018-08-20T21:25:54.383Z,74.65
2018-08-20T21:28:25.645Z,74.79
2018-08-20T21:30:54.822Z,76.21
2018-08-20T21:33:24.014Z,75.85
2018-08-20T21:35:52.648Z,75.00
2018-08-20T21:38:21.433Z,75.70
2018-08-20T21:40:50.171Z,75.71
2018-08-20T21:43:19.070Z,74.68
2018-08-20T21:45:47.999Z,75.05
2018-08-20T21:48:16.998Z,75.38
2018-08-20T21:50:46.047Z,75.61
2018-08-20T21:53:15.015Z,75.70
2018-08-20T21:55:44.144Z,75.52
2018-08-20T21:58:12.858Z,74.48
2018-08-20T22:00:42.112Z,74.82
2018-08-20T22:03:11.606Z,75.41
2018-08-20T22:05:40.614Z,74.62
2018-08-20T22:08:09.627Z,74.82
2018-08-20T22:10:38.318Z,74.56
2018-08-20T22:13:07.235Z,74.66
2018-08-20T22:15:36.094Z,74.79
2018-08-20T22:18:05.194Z,75.26
2018-08-20T22:20:33.931Z,75.01
2018-08-20T22:23:11.993Z,74.61
2018-08-20T22:25:33.166Z,75.23
2018-08-20T22:28:02.254Z,75.92
2018-08-20T22:30:31.288Z,75.10
2018-08-20T22:33:00.225Z,75.35
2018-08-20T22:35:29.228Z,75.56
2018-08-20T22:37:58.280Z,75.43
2018-08-20T22:40:27.135Z,75.97
2018-08-20T22:42:57.594Z,75.99
2018-08-20T22:45:26.441Z,75.78
2018-08-20T22:47:55.531Z,75.14
2018-08-20T22:50:24.214Z,74.32
2018-08-20T22:52:53.232Z,75.21
2018-08-20T22:55:22.789Z,75.38
2018-08-20T22:58:09.650Z,75.13
2018-08-20T23:00:38.814Z,76.06
2018-08-20T23:03:08.247Z,75.79
2018-08-20T23:05:37.422Z,74.66
2018-08-20T23:08:11.550Z,75.66
2018-08-20T23:10:42.549Z,75.71
2018-08-20T23:13:11.252Z,75.67
2018-08-20T23:15:40.179Z,76.31
2018-08-20T23:18:09.351Z,77.11
2018-08-20T23:20:38.111Z,77.19
2018-08-20T23:23:06.952Z,77.47
2018-08-20T23:25:36.246Z,78.35
2018-08-20T23:28:05.295Z,78.26
2018-08-20T23:30:34.126Z,78.73
2018-08-20T23:33:03.309Z,78.52
2018-08-20T23:35:32.400Z,78.74
2018-08-20T23:38:01.320Z,79.06
2018-08-20T23:40:30.090Z,78.94
2018-08-20T23:42:59.162Z,79.27
2018-08-20T23:45:28.050Z,78.44
2018-08-20T23:47:56.729Z,78.39
2018-08-20T23:50:25.479Z,78.58
2018-08-20T23:52:54.158Z,78.23
2018-08-20T23:55:23.479Z,77.31
2018-08-20T23:57:52.532Z,77.17
